Time;durP1;ratioP1;P1;durP2;ratioP2;P2;SDS_P1;SDS_P2;PMS_P1;PMS_P2;Temp;Humidity;BMP_temperature;BMP_pressure;BME280_temperature;BME280_humidity;BME280_pressure;Samples;Min_cycle;Max_cycle;Signal;HPM_P1;HPM_P2
2022/09/22 00:00:00;;;;;;;35.08;2.40;;;6.50;99.90;;;;;;4788631;29;20061;-86
2022/09/22 00:02:26;;;;;;;4.32;2.40;;;6.50;99.90;;;;;;4789027;29;20511;-86
2022/09/22 00:04:52;;;;;;;3.67;2.10;;;6.50;99.90;;;;;;4788362;29;20133;-86
2022/09/22 00:07:19;;;;;;;3.28;1.90;;;6.50;99.90;;;;;;4788759;29;20170;-86
2022/09/22 00:09:45;;;;;;;4.25;2.40;;;6.40;99.90;;;;;;4802826;29;20058;-86
2022/09/22 00:12:12;;;;;;;2.35;1.60;;;6.40;99.90;;;;;;4788948;29;20043;-86
2022/09/22 00:14:37;;;;;;;2.28;1.77;;;6.40;99.90;;;;;;4803127;29;20058;-86
2022/09/22 00:17:03;;;;;;;3.20;1.90;;;6.40;99.90;;;;;;4788960;29;20058;-86
2022/09/22 00:19:32;;;;;;;4.32;1.70;;;6.40;99.90;;;;;;4788990;29;20384;-87
2022/09/22 00:21:58;;;;;;;2.58;1.90;;;6.30;99.90;;;;;;4784247;29;20039;-87
2022/09/22 00:24:25;;;;;;;4.45;2.40;;;6.30;99.90;;;;;;4799855;29;20069;-85
2022/09/22 00:26:55;;;;;;;4.70;2.78;;;6.30;99.90;;;;;;4800469;29;20047;-86
2022/09/22 00:29:22;;;;;;;4.93;2.50;;;6.30;99.90;;;;;;4799575;29;20111;-86
2022/09/22 00:31:47;;;;;;;3.63;2.55;;;6.30;99.90;;;;;;4800194;29;20516;-86
2022/09/22 00:34:16;;;;;;;4.50;1.88;;;6.20;99.90;;;;;;4800450;29;20065;-86
2022/09/22 00:36:43;;;;;;;11.60;1.83;;;6.10;99.90;;;;;;4799298;29;20051;-86
2022/09/22 00:39:09;;;;;;;4.07;2.30;;;6.00;99.90;;;;;;4799547;29;20097;-86
2022/09/22 00:41:39;;;;;;;3.95;2.00;;;6.00;99.90;;;;;;4800727;29;20094;-87
2022/09/22 00:44:29;;;;;;;10.90;2.15;;;6.00;99.90;;;;;;4799636;29;20511;-86
2022/09/22 00:47:13;;;;;;;3.92;1.90;;;6.00;99.90;;;;;;4800577;29;20058;-86
2022/09/22 00:50:05;;;;;;;3.00;1.63;;;6.10;99.90;;;;;;4799685;29;20046;-86
2022/09/22 00:52:45;;;;;;;1.58;1.08;;;6.10;99.90;;;;;;4800139;29;20046;-86
2022/09/22 00:55:16;;;;;;;3.05;1.00;;;6.10;99.90;;;;;;4798698;29;20054;-87
2022/09/22 00:57:44;;;;;;;1.33;0.80;;;6.10;99.90;;;;;;4799602;29;20057;-87
2022/09/22 01:00:11;;;;;;;0.75;0.50;;;6.10;99.90;;;;;;4784919;29;20043;-86
2022/09/22 01:02:37;;;;;;;2.75;0.60;;;6.00;99.90;;;;;;4800248;29;20555;-86
2022/09/22 01:05:04;;;;;;;2.92;0.75;;;6.00;99.90;;;;;;4784187;29;20158;-86
2022/09/22 01:07:30;;;;;;;6.53;0.90;;;5.90;99.90;;;;;;4800311;29;20347;-86
2022/09/22 01:09:57;;;;;;;2.25;0.77;;;5.90;99.90;;;;;;4784263;29;20146;-86
2022/09/22 01:12:25;;;;;;;1.00;0.60;;;5.90;99.90;;;;;;4784492;29;20046;-86
2022/09/22 01:15:13;;;;;;;1.58;0.60;;;5.90;99.90;;;;;;4784758;29;20058;-86
2022/09/22 01:17:44;;;;;;;4.22;0.85;;;5.90;99.90;;;;;;4784491;29;20051;-86
2022/09/22 01:20:40;;;;;;;4.45;1.13;;;6.20;99.90;;;;;;4784674;29;20147;-86
2022/09/22 01:23:39;;;;;;;2.38;1.40;;;5.90;99.90;;;;;;4783970;29;20082;-86
2022/09/22 01:26:15;;;;;;;3.45;1.83;;;5.90;99.90;;;;;;4784304;29;20294;-86
2022/09/22 01:29:00;;;;;;;3.05;1.77;;;5.80;99.90;;;;;;4799439;29;20057;-87
2022/09/22 01:31:41;;;;;;;2.60;1.60;;;5.80;99.90;;;;;;4784368;29;20098;-86
2022/09/22 01:34:17;;;;;;;3.63;1.20;;;5.80;99.90;;;;;;4783777;29;20046;-86
2022/09/22 01:36:48;;;;;;;8.90;2.35;;;5.70;99.90;;;;;;4799261;29;20508;-86
2022/09/22 01:39:22;;;;;;;5.10;2.05;;;5.60;99.90;;;;;;4783356;29;20057;-86
2022/09/22 01:41:57;;;;;;;8.20;2.25;;;5.60;99.90;;;;;;4784505;29;20527;-87
2022/09/22 01:44:31;;;;;;;6.20;2.45;;;5.60;99.90;;;;;;4811441;29;20517;-86
2022/09/22 01:47:08;;;;;;;2.95;1.90;;;5.70;99.90;;;;;;4801701;29;20057;-87
2022/09/22 01:49:39;;;;;;;2.55;1.77;;;5.70;99.90;;;;;;4802592;29;20047;-86
2022/09/22 01:52:26;;;;;;;8.30;1.70;;;5.70;99.90;;;;;;4802891;29;20058;-86
2022/09/22 01:54:58;;;;;;;5.55;2.85;;;5.70;99.90;;;;;;4801625;29;20144;-86
2022/09/22 01:57:24;;;;;;;8.95;3.08;;;5.70;99.90;;;;;;4802272;29;20054;-86
2022/09/22 01:59:54;;;;;;;4.10;2.33;;;5.70;99.90;;;;;;4801578;29;20050;-87
2022/09/22 02:02:27;;;;;;;5.95;2.70;;;5.90;99.90;;;;;;4802274;29;20042;-87
2022/09/22 02:04:57;;;;;;;5.70;2.33;;;5.80;99.90;;;;;;4802517;29;20492;-87
2022/09/22 02:07:29;;;;;;;5.03;2.22;;;5.70;99.90;;;;;;4817090;29;20065;-86
2022/09/22 02:09:59;;;;;;;3.70;2.25;;;5.70;99.90;;;;;;4801027;29;20507;-87
2022/09/22 02:12:25;;;;;;;2.35;1.52;;;5.70;99.90;;;;;;4802339;29;20089;-86
2022/09/22 02:14:51;;;;;;;3.05;1.95;;;5.70;99.90;;;;;;4801009;29;20042;-86
2022/09/22 02:17:16;;;;;;;3.50;2.08;;;5.70;99.90;;;;;;4802611;29;20150;-85
2022/09/22 02:19:43;;;;;;;3.85;2.00;;;5.60;99.90;;;;;;4802300;29;20058;-86
2022/09/22 02:22:10;;;;;;;3.42;2.20;;;5.70;99.90;;;;;;4801233;29;20111;-86
2022/09/22 02:24:39;;;;;;;4.43;2.47;;;5.70;99.90;;;;;;4802092;29;20054;-87
2022/09/22 02:27:17;;;;;;;3.25;1.80;;;5.60;99.90;;;;;;4817321;29;20061;-87
2022/09/22 02:29:48;;;;;;;5.43;2.60;;;5.70;99.90;;;;;;4801285;29;20067;-87
2022/09/22 02:32:16;;;;;;;6.65;2.72;;;5.60;99.90;;;;;;4802434;29;20087;-86
2022/09/22 02:34:44;;;;;;;8.90;2.58;;;5.60;99.90;;;;;;4801132;29;20543;-86
2022/09/22 02:37:17;;;;;;;5.75;2.72;;;5.60;99.90;;;;;;4802639;29;20119;-86
2022/09/22 02:39:43;;;;;;;;;;;5.60;99.90;;;;;;4801769;29;20058;-87
2022/09/22 02:42:37;;;;;;;9.07;3.67;;;5.60;99.90;;;;;;4802042;29;20441;-87
2022/09/22 02:45:11;;;;;;;6.35;3.03;;;5.50;99.90;;;;;;4802696;29;20058;-87
2022/09/22 02:47:47;;;;;;;4.95;3.20;;;5.60;99.90;;;;;;4806155;29;20050;-86
2022/09/22 02:50:17;;;;;;;5.68;3.13;;;5.50;99.90;;;;;;4805455;29;20070;-86
2022/09/22 02:52:43;;;;;;;7.78;2.88;;;5.50;99.90;;;;;;4805413;29;20046;-86
2022/09/22 02:55:12;;;;;;;7.55;3.10;;;5.50;99.90;;;;;;4805215;29;20073;-87
2022/09/22 02:57:37;;;;;;;4.47;2.88;;;5.50;99.90;;;;;;4805545;29;20046;-87
2022/09/22 03:00:05;;;;;;;4.40;2.25;;;5.60;99.90;;;;;;4805625;29;20081;-86
2022/09/22 03:02:31;;;;;;;4.55;2.47;;;5.50;99.90;;;;;;4805817;29;20090;-87
2022/09/22 03:04:56;;;;;;;5.88;2.83;;;5.50;99.90;;;;;;4804991;29;20058;-87
2022/09/22 03:07:22;;;;;;;4.43;2.03;;;5.50;99.90;;;;;;4805897;29;20046;-87
2022/09/22 03:09:48;;;;;;;3.30;1.92;;;5.50;99.90;;;;;;4803602;29;20495;-88
2022/09/22 03:12:14;;;;;;;5.97;2.30;;;5.50;99.90;;;;;;4802595;29;20081;-86
2022/09/22 03:14:39;;;;;;;5.13;2.30;;;5.40;99.90;;;;;;4787414;29;20070;-87
2022/09/22 03:17:05;;;;;;;5.63;2.67;;;5.40;99.90;;;;;;4786621;29;20051;-86
2022/09/22 03:19:31;;;;;;;3.53;2.03;;;5.40;99.90;;;;;;4787744;29;20082;-87
2022/09/22 03:21:57;;;;;;;7.38;2.58;;;5.40;99.90;;;;;;4787026;29;20358;-87
2022/09/22 03:24:22;;;;;;;3.55;1.92;;;5.30;99.90;;;;;;4800993;29;20054;-87
2022/09/22 03:26:48;;;;;;;5.03;1.83;;;5.30;99.90;;;;;;4787105;29;20401;-87
2022/09/22 03:29:14;;;;;;;2.92;1.80;;;5.20;99.90;;;;;;4786885;29;20051;-87
2022/09/22 03:31:39;;;;;;;4.65;2.05;;;5.20;99.90;;;;;;4786280;29;20539;-87
2022/09/22 03:34:05;;;;;;;6.82;1.90;;;5.10;99.90;;;;;;4786962;29;20134;-86
2022/09/22 03:36:31;;;;;;;4.78;1.95;;;5.20;99.90;;;;;;4772113;29;20492;-87
2022/09/22 03:38:58;;;;;;;5.15;1.98;;;5.10;99.90;;;;;;4785025;29;20123;-87
2022/09/22 03:41:23;;;;;;;4.38;1.80;;;5.00;99.90;;;;;;4786266;29;20116;-87
2022/09/22 03:43:49;;;;;;;3.10;1.73;;;5.00;99.90;;;;;;4806410;29;20539;-87
2022/09/22 03:46:15;;;;;;;3.38;1.83;;;5.00;99.90;;;;;;4800902;29;20050;-87
2022/09/22 03:48:41;;;;;;;4.72;2.08;;;5.10;99.90;;;;;;4802113;29;20051;-87
2022/09/22 03:51:06;;;;;;;4.47;2.10;;;5.00;99.90;;;;;;4802333;29;20043;-87
2022/09/22 03:53:32;;;;;;;6.60;2.50;;;5.00;99.90;;;;;;4800027;29;20069;-86
2022/09/22 03:56:12;;;;;;;5.88;2.22;;;5.00;99.90;;;;;;4801807;29;20054;-87
2022/09/22 03:58:39;;;;;;;6.95;2.38;;;5.00;99.90;;;;;;4801850;29;20042;-87
2022/09/22 04:01:06;;;;;;;6.35;2.42;;;5.00;99.90;;;;;;4801254;29;20051;-87
2022/09/22 04:03:33;;;;;;;5.47;2.30;;;4.90;99.90;;;;;;4801619;29;20050;-87
2022/09/22 04:05:58;;;;;;;6.38;2.30;;;5.00;99.90;;;;;;4801133;29;20089;-87
2022/09/22 04:08:24;;;;;;;6.82;2.72;;;4.90;99.90;;;;;;4800471;29;20082;-87
2022/09/22 04:10:50;;;;;;;6.30;2.03;;;4.90;99.90;;;;;;4787010;29;20047;-87
2022/09/22 04:13:16;;;;;;;6.13;2.20;;;4.90;99.90;;;;;;4800465;29;20504;-87
2022/09/22 04:15:44;;;;;;;4.80;2.10;;;4.90;99.90;;;;;;4801734;29;20093;-87
2022/09/22 04:18:12;;;;;;;3.95;2.05;;;4.90;99.90;;;;;;4801245;29;20047;-86
2022/09/22 04:20:42;;;;;;;5.30;2.10;;;4.90;99.90;;;;;;4797402;29;20047;-87
2022/09/22 04:23:09;;;;;;;5.53;2.10;;;4.90;99.90;;;;;;4800612;29;20089;-86
2022/09/22 04:25:35;;;;;;;2.45;1.40;;;4.80;99.90;;;;;;4801142;29;20072;-87
2022/09/22 04:28:02;;;;;;;4.28;1.80;;;4.80;99.90;;;;;;4802126;29;20577;-87
2022/09/22 04:30:28;;;;;;;3.80;1.88;;;4.80;99.90;;;;;;4788386;29;20043;-86
2022/09/22 04:32:53;;;;;;;4.95;2.25;;;4.70;99.90;;;;;;4788551;29;20107;-86
2022/09/22 04:35:19;;;;;;;5.63;2.00;;;4.80;99.90;;;;;;4788327;29;20052;-86
2022/09/22 04:37:45;;;;;;;4.05;1.85;;;4.70;99.90;;;;;;4789024;29;20057;-86
2022/09/22 04:40:11;;;;;;;6.07;2.30;;;4.70;99.90;;;;;;4788936;29;20046;-86
2022/09/22 04:42:37;;;;;;;4.07;2.17;;;4.70;99.90;;;;;;4802822;29;20515;-87
2022/09/22 04:45:05;;;;;;;6.97;2.00;;;4.70;99.90;;;;;;4788483;29;20123;-87
2022/09/22 04:47:32;;;;;;;4.40;2.00;;;4.70;99.90;;;;;;4773204;29;20054;-87
2022/09/22 04:49:58;;;;;;;3.92;2.33;;;4.70;99.90;;;;;;4771954;29;20051;-86
2022/09/22 04:52:25;;;;;;;5.38;2.40;;;4.70;99.90;;;;;;4771072;29;20059;-86
2022/09/22 04:54:51;;;;;;;5.68;1.90;;;4.80;99.90;;;;;;4769884;29;20053;-87
2022/09/22 04:57:17;;;;;;;5.65;1.85;;;4.70;99.90;;;;;;4770093;29;20050;-87
2022/09/22 04:59:42;;;;;;;10.55;2.20;;;4.70;99.90;;;;;;4769658;29;20128;-87
2022/09/22 05:02:08;;;;;;;3.42;1.95;;;4.70;99.90;;;;;;4770038;29;20046;-87
2022/09/22 05:04:34;;;;;;;3.63;1.85;;;4.80;99.90;;;;;;4770651;29;20062;-87
2022/09/22 05:07:00;;;;;;;2.40;1.60;;;4.70;99.90;;;;;;4783973;29;20053;-87
2022/09/22 05:09:27;;;;;;;3.35;1.90;;;4.70;99.90;;;;;;4778756;29;20556;-87
2022/09/22 05:11:53;;;;;;;4.05;2.00;;;4.80;99.90;;;;;;4780225;29;20098;-86
2022/09/22 05:14:19;;;;;;;2.90;1.70;;;4.80;99.90;;;;;;4779639;29;20511;-87
2022/09/22 05:16:45;;;;;;;5.57;1.67;;;4.80;99.90;;;;;;4800727;29;20050;-87
2022/09/22 05:19:11;;;;;;;4.53;1.83;;;4.80;99.90;;;;;;4778726;29;20081;-86
2022/09/22 05:21:36;;;;;;;4.35;1.50;;;4.70;99.90;;;;;;4779341;29;20498;-86
2022/09/22 05:24:03;;;;;;;4.25;2.13;;;4.80;99.90;;;;;;4776609;29;20062;-86
2022/09/22 05:26:29;;;;;;;3.05;1.83;;;4.70;99.90;;;;;;4776548;29;20088;-86
2022/09/22 05:28:56;;;;;;;3.85;1.77;;;4.70;99.90;;;;;;4776592;29;20053;-86
2022/09/22 05:31:22;;;;;;;3.58;2.35;;;4.70;99.90;;;;;;4777147;29;20046;-86
2022/09/22 05:33:49;;;;;;;5.72;2.15;;;4.60;99.90;;;;;;4778651;29;20042;-87
2022/09/22 05:36:15;;;;;;;4.03;2.10;;;4.60;99.90;;;;;;4776601;29;20062;-86
2022/09/22 05:38:40;;;;;;;9.45;2.00;;;4.60;99.90;;;;;;4768432;29;20077;-87
2022/09/22 05:41:06;;;;;;;2.67;1.70;;;4.60;99.90;;;;;;4769474;29;20100;-87
2022/09/22 05:43:32;;;;;;;6.30;1.70;;;4.70;99.90;;;;;;4775808;29;20068;-86
2022/09/22 05:45:58;;;;;;;3.65;2.10;;;4.60;99.90;;;;;;4802179;29;20385;-87
2022/09/22 05:48:23;;;;;;;3.50;1.60;;;4.70;99.90;;;;;;4802306;29;20121;-87
2022/09/22 05:50:49;;;;;;;4.60;1.80;;;4.70;99.90;;;;;;4803667;29;20190;-87
2022/09/22 05:53:15;;;;;;;3.85;2.10;;;4.70;99.90;;;;;;4787755;29;20050;-87
2022/09/22 05:55:41;;;;;;;5.35;2.10;;;4.70;99.90;;;;;;4798659;29;20605;-86
2022/09/22 05:58:10;;;;;;;4.18;2.58;;;4.80;99.90;;;;;;4787306;29;20141;-87
2022/09/22 06:00:37;;;;;;;7.25;2.60;;;4.80;99.90;;;;;;4787542;29;20081;-87
2022/09/22 06:03:03;;;;;;;3.58;1.90;;;4.90;99.90;;;;;;4788111;29;20081;-87
2022/09/22 06:05:29;;;;;;;5.40;2.20;;;4.90;99.90;;;;;;4786731;29;20461;-87
2022/09/22 06:08:00;;;;;;;4.15;1.98;;;4.90;99.90;;;;;;4788132;29;20161;-86
2022/09/22 06:10:26;;;;;;;7.25;2.20;;;5.00;99.90;;;;;;4786671;29;20050;-87
2022/09/22 06:12:57;;;;;;;6.15;1.95;;;5.00;99.90;;;;;;4787417;29;20099;-86
2022/09/22 06:15:23;;;;;;;3.55;1.70;;;5.00;99.90;;;;;;4787320;29;20547;-86
2022/09/22 06:17:51;;;;;;;5.63;2.63;;;5.00;99.90;;;;;;4788063;29;20092;-87
2022/09/22 06:20:17;;;;;;;5.20;2.10;;;5.10;99.90;;;;;;4789689;29;20051;-86
2022/09/22 06:22:43;;;;;;;3.70;1.50;;;5.10;99.90;;;;;;4774021;29;20065;-86
2022/09/22 06:25:10;;;;;;;7.72;1.70;;;5.20;99.90;;;;;;4796547;29;20057;-87
2022/09/22 06:27:36;;;;;;;5.07;1.30;;;5.20;99.90;;;;;;4775046;29;20050;-87
2022/09/22 06:30:02;;;;;;;2.92;1.48;;;5.20;99.90;;;;;;4772841;29;20050;-86
2022/09/22 06:32:28;;;;;;;3.85;1.83;;;5.30;99.90;;;;;;4790698;29;20050;-86
2022/09/22 06:34:54;;;;;;;5.40;1.88;;;5.40;99.90;;;;;;4805157;29;20039;-86
2022/09/22 06:37:22;;;;;;;4.38;1.90;;;5.40;99.90;;;;;;4805384;29;20051;-86
2022/09/22 06:39:48;;;;;;;5.40;2.83;;;5.50;99.90;;;;;;4804933;29;20448;-87
2022/09/22 06:42:15;;;;;;;6.90;3.72;;;5.60;99.90;;;;;;4804803;29;20062;-86
2022/09/22 06:44:43;;;;;;;9.38;4.07;;;5.70;99.90;;;;;;4805018;29;20054;-86
2022/09/22 06:47:11;;;;;;;9.05;4.88;;;5.70;99.90;;;;;;4805557;29;20050;-87
2022/09/22 06:49:37;;;;;;;11.65;5.93;;;5.90;99.90;;;;;;4804610;29;20043;-87
2022/09/22 06:52:04;;;;;;;12.32;6.13;;;5.90;99.90;;;;;;4805756;29;20054;-86
2022/09/22 06:54:38;;;;;;;11.48;6.47;;;6.10;99.90;;;;;;4805056;29;20046;-86
2022/09/22 06:57:11;;;;;;;10.35;6.53;;;6.20;99.90;;;;;;4805396;29;20058;-86
2022/09/22 06:59:37;;;;;;;10.80;6.90;;;6.30;99.90;;;;;;4805334;29;20054;-87
2022/09/22 07:02:06;;;;;;;12.70;6.47;;;6.40;99.90;;;;;;4805174;29;20054;-87
2022/09/22 07:04:34;;;;;;;13.05;6.93;;;6.50;99.90;;;;;;4805747;29;20050;-87
2022/09/22 07:07:02;;;;;;;10.80;7.55;;;6.70;99.90;;;;;;4805290;29;20393;-87
2022/09/22 07:09:30;;;;;;;17.58;7.55;;;6.80;99.90;;;;;;4803381;29;20116;-86
2022/09/22 07:11:56;;;;;;;18.55;8.20;;;6.90;99.90;;;;;;4802259;29;20054;-86
2022/09/22 07:14:25;;;;;;;12.38;8.20;;;7.10;99.90;;;;;;4786929;29;20055;-87
2022/09/22 07:16:51;;;;;;;11.57;7.97;;;7.10;99.90;;;;;;4786626;29;20053;-87
2022/09/22 07:19:17;;;;;;;14.55;8.55;;;7.20;99.90;;;;;;4786791;29;20047;-87
2022/09/22 07:21:43;;;;;;;16.30;9.63;;;7.40;99.90;;;;;;4787322;29;20405;-87
2022/09/22 07:24:13;;;;;;;15.80;9.25;;;7.40;99.90;;;;;;4785616;29;20055;-87
2022/09/22 07:26:41;;;;;;;19.55;9.60;;;7.60;99.90;;;;;;4787074;29;20050;-88
2022/09/22 07:29:12;;;;;;;14.45;9.00;;;7.70;99.90;;;;;;4787363;29;20105;-87
2022/09/22 07:31:40;;;;;;;14.85;9.48;;;7.80;99.90;;;;;;4786572;29;20072;-88
2022/09/22 07:34:06;;;;;;;16.92;9.65;;;7.90;99.90;;;;;;4786722;29;20069;-88
2022/09/22 07:36:33;;;;;;;14.70;8.95;;;8.10;99.90;;;;;;4802568;29;20112;-88
2022/09/22 07:39:09;;;;;;;15.65;9.23;;;8.20;99.90;;;;;;4785771;29;20065;-88
2022/09/22 07:41:41;;;;;;;17.02;9.20;;;8.40;99.90;;;;;;4786856;29;20521;-88
2022/09/22 07:46:54;;;;;;;15.20;8.70;;;8.70;99.90;;;;;;4802064;29;20079;-87
2022/09/22 07:49:21;;;;;;;16.08;8.27;;;9.00;99.90;;;;;;4786943;29;20058;-87
2022/09/22 07:51:53;;;;;;;11.48;8.23;;;9.10;99.90;;;;;;4785782;29;20059;-87
2022/09/22 07:54:20;;;;;;;15.90;8.65;;;9.20;99.90;;;;;;4786267;29;20054;-87
2022/09/22 07:56:45;;;;;;;13.18;8.07;;;9.40;99.90;;;;;;4786663;29;20548;-86
2022/09/22 07:59:14;;;;;;;12.07;7.43;;;9.50;99.90;;;;;;4785725;29;20082;-87
2022/09/22 08:01:42;;;;;;;13.20;6.90;;;9.60;99.90;;;;;;4793973;29;20488;-87
2022/09/22 08:04:14;;;;;;;11.05;7.00;;;9.70;99.90;;;;;;4801191;29;20105;-87
2022/09/22 08:06:40;;;;;;;13.07;7.18;;;9.80;99.90;;;;;;4801125;29;20073;-87
2022/09/22 08:09:07;;;;;;;9.73;6.97;;;10.00;99.90;;;;;;4800811;29;20119;-87
2022/09/22 08:11:32;;;;;;;10.25;6.88;;;10.10;99.90;;;;;;4786376;29;20050;-87
2022/09/22 08:14:02;;;;;;;12.30;7.07;;;10.20;99.90;;;;;;4800251;29;20055;-87
2022/09/22 08:16:31;;;;;;;11.15;6.85;;;10.40;99.90;;;;;;4801104;29;20137;-86
2022/09/22 08:19:01;;;;;;;13.68;7.28;;;10.40;99.90;;;;;;4786014;29;20119;-87
2022/09/22 08:21:33;;;;;;;9.18;6.45;;;10.60;99.90;;;;;;4785347;29;20051;-87
2022/09/22 08:24:01;;;;;;;11.45;7.00;;;10.70;99.90;;;;;;4785233;29;20617;-87
2022/09/22 08:26:27;;;;;;;13.02;5.95;;;10.90;99.90;;;;;;4800071;29;20047;-87
2022/09/22 08:28:55;;;;;;;10.27;6.18;;;11.00;99.90;;;;;;4785771;29;20065;-87
2022/09/22 08:31:22;;;;;;;14.73;5.95;;;11.10;99.90;;;;;;4800406;29;20057;-87
2022/09/22 08:33:50;;;;;;;12.95;6.07;;;11.30;99.90;;;;;;4809863;29;20193;-87
2022/09/22 08:36:16;;;;;;;14.93;6.32;;;11.40;99.90;;;;;;4800739;29;20062;-87
2022/09/22 08:38:47;;;;;;;7.85;5.15;;;11.50;99.90;;;;;;4799639;29;20412;-87
2022/09/22 08:41:37;;;;;;;7.25;4.78;;;11.60;99.90;;;;;;4799861;29;20094;-87
2022/09/22 08:44:09;;;;;;;8.48;4.53;;;11.80;99.90;;;;;;4785437;29;20050;-87
2022/09/22 08:46:39;;;;;;;10.65;5.13;;;11.90;99.90;;;;;;4785970;29;20373;-88
2022/09/22 08:52:24;;;;;;;10.60;5.43;;;12.20;99.90;;;;;;4800659;29;20059;-86
2022/09/22 08:54:50;;;;;;;11.52;5.57;;;12.40;99.90;;;;;;4799185;29;20133;-87
2022/09/22 08:57:35;;;;;;;13.18;5.40;;;12.40;99.90;;;;;;4800717;29;20050;-87
2022/09/22 09:00:05;;;;;;;10.98;4.68;;;12.60;99.90;;;;;;4785159;29;20061;-87
2022/09/22 09:02:48;;;;;;;8.52;3.83;;;12.60;99.90;;;;;;4784894;29;20050;-87
2022/09/22 09:05:27;;;;;;;16.00;4.72;;;12.80;99.90;;;;;;4800423;29;20055;-86
2022/09/22 09:08:01;;;;;;;10.02;4.15;;;12.90;99.90;;;;;;4785295;29;20111;-87
2022/09/22 09:10:41;;;;;;;12.02;4.13;;;12.90;99.90;;;;;;4798305;29;20063;-87
2022/09/22 09:13:21;;;;;;;9.68;3.70;;;13.10;99.90;;;;;;4799771;29;20050;-87
2022/09/22 09:16:12;;;;;;;10.70;4.18;;;13.10;99.90;;;;;;4799669;29;20062;-87
2022/09/22 09:18:43;;;;;;;8.15;3.50;;;13.30;99.90;;;;;;4799400;29;20061;-87
2022/09/22 09:21:13;;;;;;;6.75;2.65;;;13.40;99.90;;;;;;4785019;29;20537;-88
2022/09/22 09:23:45;;;;;;;7.60;3.20;;;13.50;99.90;;;;;;4783638;29;20051;-88
2022/09/22 09:26:13;;;;;;;10.37;3.07;;;13.60;99.90;;;;;;4784913;29;20112;-87
2022/09/22 09:28:43;;;;;;;9.10;2.70;;;13.70;99.90;;;;;;4800027;29;20292;-87
2022/09/22 09:31:37;;;;;;;12.32;3.13;;;13.80;99.90;;;;;;4783788;29;20124;-87
2022/09/22 09:34:09;;;;;;;8.95;2.55;;;13.80;99.90;;;;;;4785159;29;20058;-88
2022/09/22 09:36:40;;;;;;;5.75;1.70;;;13.90;99.90;;;;;;4799660;29;20058;-88
2022/09/22 09:39:13;;;;;;;6.60;2.00;;;14.00;99.90;;;;;;4799205;29;20052;-87
2022/09/22 09:41:42;;;;;;;9.05;2.30;;;14.10;99.90;;;;;;4784988;29;20058;-88
2022/09/22 09:44:16;;;;;;;10.90;1.85;;;14.20;99.90;;;;;;4784276;29;20062;-88
2022/09/22 09:47:10;;;;;;;6.93;1.85;;;14.30;99.90;;;;;;4784809;29;20049;-88
2022/09/22 09:49:36;;;;;;;6.35;1.52;;;14.40;99.90;;;;;;4784539;29;20051;-87
2022/09/22 09:52:08;;;;;;;3.90;1.48;;;14.40;99.90;;;;;;4784804;29;20057;-88
2022/09/22 09:54:36;;;;;;;8.07;1.73;;;14.50;99.90;;;;;;4798324;29;20047;-87
2022/09/22 09:57:11;;;;;;;7.85;1.75;;;14.60;99.90;;;;;;4785111;29;20047;-87
2022/09/22 10:02:27;;;;;;;5.68;1.48;;;14.70;99.90;;;;;;4799416;29;20066;-87
2022/09/22 10:04:57;;;;;;;5.95;1.23;;;14.80;99.90;;;;;;4798454;29;20424;-86
2022/09/22 10:07:27;;;;;;;7.53;1.70;;;14.80;99.90;;;;;;4799512;29;20058;-87
2022/09/22 10:09:54;;;;;;;6.22;1.50;;;14.90;99.90;;;;;;4798414;29;20115;-87
2022/09/22 10:12:29;;;;;;;4.57;1.65;;;14.90;99.90;;;;;;4799234;29;20389;-87
2022/09/22 10:14:57;;;;;;;8.32;1.25;;;14.90;99.90;;;;;;4799079;29;20051;-87
2022/09/22 10:17:37;;;;;;;7.50;1.27;;;15.00;99.90;;;;;;4799560;29;20579;-87
2022/09/22 10:20:30;;;;;;;7.85;2.35;;;15.10;99.90;;;;;;4798690;29;20416;-87
2022/09/22 10:23:19;;;;;;;12.83;2.47;;;15.10;99.90;;;;;;4799116;29;20046;-88
2022/09/22 10:25:45;;;;;;;7.10;2.28;;;15.20;99.90;;;;;;4783616;29;20111;-87
2022/09/22 10:28:16;;;;;;;8.60;2.10;;;15.30;99.90;;;;;;4799701;29;20051;-87
2022/09/22 10:30:44;;;;;;;11.57;2.90;;;15.30;99.90;;;;;;4799548;29;20333;-87
2022/09/22 10:33:18;;;;;;;8.38;2.45;;;15.40;99.90;;;;;;4802050;29;20518;-88
2022/09/22 10:36:01;;;;;;;9.85;2.42;;;15.50;99.90;;;;;;4802847;29;20050;-87
2022/09/22 10:41:19;;;;;;;6.53;2.00;;;15.60;99.90;;;;;;4803653;29;20063;-93
2022/09/22 10:43:48;;;;;;;11.10;1.98;;;15.70;99.90;;;;;;4790542;29;20206;-91
2022/09/22 10:46:36;;;;;;;6.95;2.03;;;15.80;99.90;;;;;;4789736;29;20080;-92
2022/09/22 10:49:11;;;;;;;4.95;1.38;;;15.80;99.90;;;;;;4790072;29;20055;-91
2022/09/22 10:51:56;;;;;;;8.13;1.60;;;15.90;99.90;;;;;;4789048;29;20411;-92
2022/09/22 10:54:40;;;;;;;6.60;1.80;;;15.90;99.90;;;;;;4789591;29;20090;-92
2022/09/22 10:57:22;;;;;;;5.88;1.77;;;16.10;99.90;;;;;;4790160;29;20058;-92
2022/09/22 11:00:11;;;;;;;9.13;1.85;;;16.20;99.90;;;;;;4775587;29;20051;-92
2022/09/22 11:03:17;;;;;;;7.05;1.55;;;16.30;99.90;;;;;;4788924;29;20614;-93
2022/09/22 11:12:20;;;;;;;4.85;1.65;;;16.60;99.90;;;;;;4792271;29;20057;-93
2022/09/22 11:15:10;;;;;;;9.85;2.10;;;16.60;99.90;;;;;;4791830;29;20412;-92
2022/09/22 11:17:45;;;;;;;5.43;1.60;;;16.80;99.90;;;;;;4793941;29;20066;-92
2022/09/22 11:20:38;;;;;;;6.03;1.67;;;16.70;99.90;;;;;;4777204;29;20050;-91
2022/09/22 11:23:14;;;;;;;;;;;16.60;99.90;;;;;;4778046;29;20047;-92
2022/09/22 11:25:54;;;;;;;10.93;1.98;;;16.40;99.90;;;;;;4776974;29;19921;-96
2022/09/22 11:28:21;;;;;;;6.93;1.40;;;16.50;99.90;;;;;;4793086;29;20082;-92
2022/09/22 11:30:50;;;;;;;6.38;1.38;;;16.60;99.90;;;;;;4791685;29;20706;-93
2022/09/22 11:33:42;;;;;;;6.40;1.88;;;16.70;99.90;;;;;;4777040;29;20393;-94
2022/09/22 11:36:15;;;;;;;6.18;1.95;;;16.80;99.90;;;;;;4791974;29;20393;-94
2022/09/22 11:39:08;;;;;;;14.05;1.90;;;17.00;99.90;;;;;;4793133;29;20138;-93
2022/09/22 11:41:49;;;;;;;10.98;1.38;;;17.10;99.90;;;;;;4790010;29;20108;-91
2022/09/22 11:44:15;;;;;;;5.55;1.70;;;17.10;99.90;;;;;;4774970;29;20059;-91
2022/09/22 11:46:54;;;;;;;7.70;2.20;;;17.10;99.90;;;;;;4791416;29;20051;-91
2022/09/22 11:49:20;;;;;;;11.68;3.63;;;16.90;99.90;;;;;;4791461;29;20051;-92
2022/09/22 11:52:01;;;;;;;6.75;2.30;;;16.70;99.90;;;;;;4792492;29;20050;-92
2022/09/22 11:54:33;;;;;;;8.38;2.17;;;16.50;99.90;;;;;;4778314;29;20142;-92
2022/09/22 11:57:08;;;;;;;6.25;2.05;;;16.50;99.90;;;;;;4793328;29;20504;-92
2022/09/22 11:59:43;;;;;;;6.38;2.17;;;16.60;99.90;;;;;;4776416;29;20062;-94
2022/09/22 12:02:27;;;;;;;6.20;1.85;;;16.70;99.90;;;;;;4764377;30;20134;-93
2022/09/22 12:04:55;;;;;;;8.48;2.65;;;16.90;99.90;;;;;;4760179;30;20541;-92
2022/09/22 12:07:28;;;;;;;5.55;2.15;;;17.00;99.90;;;;;;4759783;30;20059;-92
2022/09/22 12:10:05;;;;;;;5.85;2.47;;;17.10;99.90;;;;;;4758560;30;20112;-93
2022/09/22 12:12:32;;;;;;;8.02;2.83;;;17.00;99.90;;;;;;4758648;30;20112;-91
2022/09/22 12:15:06;;;;;;;5.95;2.55;;;16.90;99.90;;;;;;4760220;30;20174;-92
2022/09/22 12:17:44;;;;;;;8.80;3.40;;;16.90;99.90;;;;;;4760049;30;20054;-94
2022/09/22 12:20:41;;;;;;;14.45;3.92;;;16.80;99.90;;;;;;4758987;30;20090;-95
2022/09/22 12:23:16;;;;;;;11.00;3.53;;;16.80;99.90;;;;;;4774140;30;20051;-94
2022/09/22 12:25:46;;;;;;;9.13;3.53;;;16.90;99.90;;;;;;4758104;30;20054;-95
2022/09/22 12:28:18;;;;;;;9.57;3.58;;;16.90;99.90;;;;;;4758532;30;20505;-95
2022/09/22 12:30:56;;;;;;;7.95;3.42;;;17.00;99.90;;;;;;4758667;30;20051;-94
2022/09/22 12:33:22;;;;;;;8.85;3.40;;;17.20;99.90;;;;;;4754771;30;20134;-95
2022/09/22 12:36:10;;;;;;;8.80;3.33;;;17.20;99.90;;;;;;4755626;30;20134;-92
2022/09/22 12:39:09;;;;;;;10.02;3.63;;;17.30;99.90;;;;;;4756890;30;20083;-94
2022/09/22 12:44:56;;;;;;;10.50;3.40;;;17.40;99.90;;;;;;4788199;29;20519;-93
2022/09/22 12:47:34;;;;;;;8.75;3.20;;;17.50;99.90;;;;;;4774714;30;20097;-92
2022/09/22 12:50:06;;;;;;;11.75;3.55;;;17.40;99.90;;;;;;4772653;30;20497;-92
2022/09/22 12:52:39;;;;;;;13.52;3.03;;;17.40;99.90;;;;;;4773995;30;20051;-92
2022/09/22 12:55:15;;;;;;;;;;;17.40;99.90;;;;;;4772957;30;20043;-91
2022/09/22 12:57:45;;;;;;;11.93;3.13;;;17.40;99.90;;;;;;4779227;29;19982;-92
2022/09/22 13:00:19;;;;;;;7.03;2.85;;;17.40;99.90;;;;;;4772968;30;20043;-91
2022/09/22 13:02:46;;;;;;;8.20;3.10;;;17.30;99.90;;;;;;4773794;30;20043;-91
2022/09/22 13:05:24;;;;;;;12.32;3.17;;;17.20;99.90;;;;;;4773496;29;20055;-94
2022/09/22 13:07:52;;;;;;;7.07;3.20;;;17.00;99.90;;;;;;4772208;30;20052;-92
2022/09/22 13:10:21;;;;;;;9.15;2.70;;;16.90;99.90;;;;;;4772643;30;20043;-92
2022/09/22 13:13:20;;;;;;;6.20;3.05;;;16.90;99.90;;;;;;4773793;30;20090;-92
2022/09/22 13:15:51;;;;;;;10.23;2.55;;;16.90;99.90;;;;;;4772465;30;20442;-93
2022/09/22 13:18:36;;;;;;;9.65;3.40;;;16.80;99.90;;;;;;4772907;30;20058;-92
2022/09/22 13:21:20;;;;;;;8.30;2.83;;;17.00;99.90;;;;;;4772280;30;20500;-92
2022/09/22 13:23:50;;;;;;;7.78;2.97;;;17.10;99.90;;;;;;4803336;29;20046;-93
2022/09/22 13:26:21;;;;;;;9.35;3.13;;;17.10;99.90;;;;;;4805468;29;20043;-93
2022/09/22 13:29:11;;;;;;;8.65;3.00;;;17.20;99.90;;;;;;4805367;29;20139;-94
2022/09/22 13:31:41;;;;;;;8.60;2.85;;;17.20;99.90;;;;;;4805013;29;20544;-93